Keewaydin — ZCFL7 — position and weather

sailwx.info

Track history (hours):
 
Tides and Currents Weather Stations Pressure Air Temp Water Temp Dewpoint Dewpoint Depression Visibility Wind Speed Wind Dir Waves Ship Positions

Keewaydin

Last reported at 2015-Aug-31 15:32 UTC. Time now 2015-Sep-05 16:24 UTC.
Position N 41°26' E 002°15'.

Length 34 m; draft 2.7 m.

Type: Sailing vessel. MMSI: 319536000.

Date/timePositionNaut miles runAvg speedWind from/ knotsBaromVisibWave heightAir tempDewpointWater temp
2015-Aug-31 15:32N 41°26' E 002°15'5 4.6
2015-Aug-31 14:33N 41°22' E 002°12'15 4.8
2015-Aug-31 11:29N 41°14' E 001°56'15 7.9
2015-Aug-31 09:33N 41°21' E 002°14'  
2015-Aug-28 09:33N 41°26' E 002°15'6 5.6
2015-Aug-28 08:24N 41°20' E 002°18'7 8.2
2015-Aug-28 07:33N 41°14' E 002°23'8 8.4
2015-Aug-28 06:33N 41°07' E 002°28'9 8.7
2015-Aug-28 05:33N 40°59' E 002°33'9 8.7
2015-Aug-28 04:33N 40°51' E 002°38'8 8.4
2015-Aug-28 03:33N 40°44' E 002°43'8 8.3
2015-Aug-28 02:33N 40°36' E 002°48'8 8.0
2015-Aug-28 01:33N 40°29' E 002°52'8 8.0
2015-Aug-28 00:33N 40°22' E 002°57'8 8.0
2015-Aug-27 23:33N 40°15' E 003°02'23 7.6
2015-Aug-27 20:32N 39°53' E 003°11'4 0.1
2015-Aug-26 08:24N 39°50' E 003°08'8 9.3
2015-Aug-26 07:33N 39°51' E 003°19'9 9.5
2015-Aug-26 06:33N 39°52' E 003°31'9 9.2
2015-Aug-26 05:33N 39°53' E 003°43'9 9.0
2015-Aug-26 04:33N 39°55' E 003°54'  
Track history (hours):
 
Tides and Currents Weather Stations Pressure Air Temp Water Temp Dewpoint Dewpoint Depression Visibility Wind Speed Wind Dir Waves Ship Positions

Keewaydin

Last reported at 2015-Aug-31 15:32 UTC. Time now 2015-Sep-05 16:24 UTC.
Position N 41°26' E 002°15'.

Length 34 m; draft 2.7 m.

Type: Sailing vessel. MMSI: 319536000.

Date/timePositionNaut miles runAvg speedWind from/ knotsBaromVisibWave heightAir tempDewpointWater temp
2015-Aug-31 15:32N 41°26' E 002°15'5 4.6
2015-Aug-31 14:33N 41°22' E 002°12'15 4.8
2015-Aug-31 11:29N 41°14' E 001°56'15 7.9
2015-Aug-31 09:33N 41°21' E 002°14'  
2015-Aug-28 09:33N 41°26' E 002°15'6 5.6
2015-Aug-28 08:24N 41°20' E 002°18'7 8.2
2015-Aug-28 07:33N 41°14' E 002°23'8 8.4
2015-Aug-28 06:33N 41°07' E 002°28'9 8.7
2015-Aug-28 05:33N 40°59' E 002°33'9 8.7
2015-Aug-28 04:33N 40°51' E 002°38'8 8.4
2015-Aug-28 03:33N 40°44' E 002°43'8 8.3
2015-Aug-28 02:33N 40°36' E 002°48'8 8.0
2015-Aug-28 01:33N 40°29' E 002°52'8 8.0
2015-Aug-28 00:33N 40°22' E 002°57'8 8.0
2015-Aug-27 23:33N 40°15' E 003°02'23 7.6
2015-Aug-27 20:32N 39°53' E 003°11'4 0.1
2015-Aug-26 08:24N 39°50' E 003°08'8 9.3
2015-Aug-26 07:33N 39°51' E 003°19'9 9.5
2015-Aug-26 06:33N 39°52' E 003°31'9 9.2
2015-Aug-26 05:33N 39°53' E 003°43'9 9.0
2015-Aug-26 04:33N 39°55' E 003°54'  

Dump ship's entire track history